Hlavní strana
METAR-TAF:

METAR-TAF

Letiště :

Paris, Tennessee, Spojené státy americké

zeměpisná šířka: 36-20-18N, zeměpisná délka: 088-22-58W, výška: 177 m

Aktuální stav počasí

Zpráva byla vytvořena před 23 minutami, v 07:45 UTC
Jihovýchodní vítr 6 kt
Teplota 5°C
Vlhkost vzduchu 93%
Tlak 1022 hPa
Viditelnost: 12.9 km
Jasno

METAR: KPHT 080745Z AUTO 13006KT 8SM CLR 05/04 A3017 RMK A01

Čas: 02:08 (08:08 UTC)


TAF: chybějící

Stav a předpovědi počasí z více než 4 000 letišť (zprávy METAR a TAF).

Červené a žluté tečky na mapě představují dostupné meteorologické stanice.

Když kurzor umístíte na tečku, zobrazí se název stanice.

Pak kliknutím zobrazíte stav a předpověď počasí.

Chcete-li změnit mapu, kliknutím na zelené tlačítko se znaménkem +mapu přiblížíte, kliknutím na zelené tlačítko se znaménkem – mapu oddálíte a kliknutím na zelené šipky přejdete na sousední mapy.


METAR-TAF: